Time;durP1;ratioP1;P1;durP2;ratioP2;P2;SDS_P1;SDS_P2;PMS_P1;PMS_P2;Temp;Humidity;BMP_temperature;BMP_pressure;BME280_temperature;BME280_humidity;BME280_pressure;Samples;Min_cycle;Max_cycle;Signal;HPM_P1;HPM_P2
2022/06/09 00:01:40;;;;;;;3.97;2.30;;;;;;;12.96;100.00;95707.13;5020986;28;20048;-79
2022/06/09 00:04:18;;;;;;;4.53;2.10;;;;;;;12.96;100.00;95699.22;5029107;28;20038;-78
2022/06/09 00:06:55;;;;;;;4.17;2.00;;;;;;;12.92;100.00;95697.97;5020671;28;20487;-78
2022/06/09 00:09:26;;;;;;;4.53;2.47;;;;;;;12.85;100.00;95696.28;5036628;28;20034;-79
2022/06/09 00:11:52;;;;;;;3.47;1.83;;;;;;;12.81;100.00;95689.72;5019048;28;20361;-78
2022/06/09 00:14:18;;;;;;;2.97;1.67;;;;;;;12.78;100.00;95688.28;5034686;28;20119;-78
2022/06/09 00:16:44;;;;;;;4.93;1.90;;;;;;;12.72;100.00;95695.09;5026220;28;20042;-79
2022/06/09 00:19:12;;;;;;;3.13;1.60;;;;;;;12.72;100.00;95699.56;5050378;28;20115;-78
2022/06/09 00:21:38;;;;;;;3.87;2.97;;;;;;;12.58;100.00;95700.44;5021443;28;20041;-78
2022/06/09 00:24:05;;;;;;;5.20;1.80;;;;;;;12.62;100.00;95702.50;5016971;28;20083;-78
2022/06/09 00:26:31;;;;;;;3.87;1.53;;;;;;;12.55;100.00;95708.72;5035049;28;20042;-79
2022/06/09 00:28:58;;;;;;;2.73;1.73;;;;;;;12.64;100.00;95700.50;5009499;28;20109;-78
2022/06/09 00:31:24;;;;;;;5.50;2.00;;;;;;;12.62;100.00;95702.50;5018815;28;20050;-78
2022/06/09 00:33:50;;;;;;;3.40;2.30;;;;;;;12.57;100.00;95699.59;5020041;28;20091;-79
2022/06/09 00:36:16;;;;;;;3.30;1.87;;;;;;;12.61;100.00;95705.31;5024982;28;20434;-79
2022/06/09 00:38:42;;;;;;;5.30;2.80;;;;;;;12.60;100.00;95709.75;5016540;28;20034;-79
2022/06/09 00:41:08;;;;;;;3.97;1.80;;;;;;;12.59;100.00;95702.06;5032779;28;20042;-79
2022/06/09 00:43:34;;;;;;;4.57;1.73;;;;;;;12.60;100.00;95709.75;5017372;28;20602;-78
2022/06/09 00:46:16;;;;;;;3.60;1.80;;;;;;;12.62;100.00;95704.31;5045602;28;20139;-78
2022/06/09 00:48:51;;;;;;;2.53;1.70;;;;;;;12.60;100.00;95701.84;5011178;28;20476;-79
2022/06/09 00:51:29;;;;;;;3.53;1.80;;;;;;;12.62;100.00;95714.88;5014825;28;20042;-78
2022/06/09 00:54:01;;;;;;;2.87;1.77;;;;;;;12.63;100.00;95709.41;5014535;28;20101;-78
2022/06/09 00:56:27;;;;;;;2.05;1.25;;;;;;;12.66;100.00;95706.41;5010381;28;20487;-78
2022/06/09 00:58:55;;;;;;;3.17;2.00;;;;;;;12.70;100.00;95717.41;5015547;28;20030;-79
2022/06/09 01:01:23;;;;;;;3.87;1.67;;;;;;;12.71;100.00;95716.41;5017847;28;20068;-78
2022/06/09 01:03:54;;;;;;;2.90;1.53;;;;;;;12.76;100.00;95714.03;5034789;28;20133;-78
2022/06/09 01:06:25;;;;;;;2.60;1.60;;;;;;;12.74;100.00;95716.00;5022840;28;20053;-78
2022/06/09 01:09:02;;;;;;;3.87;1.87;;;;;;;12.77;100.00;95720.94;5018367;28;20044;-78
2022/06/09 01:11:27;;;;;;;3.93;2.27;;;;;;;12.78;100.00;95721.78;5037629;28;20059;-78
2022/06/09 01:13:57;;;;;;;4.27;2.00;;;;;;;12.76;100.00;95719.31;5030027;28;20029;-78
2022/06/09 01:16:41;;;;;;;5.50;1.90;;;;;;;12.69;100.00;95721.03;5034456;28;20406;-79
2022/06/09 01:19:22;;;;;;;2.83;2.10;;;;;;;12.68;100.00;95722.06;5022971;28;20045;-78
2022/06/09 01:22:03;;;;;;;3.57;1.73;;;;;;;12.63;100.00;95721.78;5031196;28;20065;-78
2022/06/09 01:24:53;;;;;;;4.13;1.70;;;;;;;12.64;100.00;95726.03;5013411;28;20104;-78
2022/06/09 01:27:34;;;;;;;3.97;2.03;;;;;;;12.65;100.00;95727.69;5015987;28;20113;-77
2022/06/09 01:30:04;;;;;;;3.83;1.90;;;;;;;12.67;100.00;95728.31;5022241;28;20117;-78
2022/06/09 01:32:35;;;;;;;2.83;1.83;;;;;;;12.56;100.00;95728.78;5023444;28;20038;-78
2022/06/09 01:35:06;;;;;;;4.60;1.87;;;;;;;12.61;100.00;95723.78;5015733;28;20041;-78
2022/06/09 01:37:38;;;;;;;3.60;2.20;;;;;;;12.61;100.00;95729.03;5017808;28;20068;-78
2022/06/09 01:40:07;;;;;;;2.67;1.77;;;;;;;12.64;100.00;95731.31;5023891;28;20073;-78
2022/06/09 01:42:34;;;;;;;3.03;2.20;;;;;;;12.65;100.00;95730.34;5024799;28;20048;-78
2022/06/09 01:45:09;;;;;;;5.07;2.50;;;;;;;12.72;100.00;95723.31;5019851;28;20096;-78
2022/06/09 01:47:44;;;;;;;4.47;2.30;;;;;;;12.78;100.00;95730.50;5014601;28;20037;-77
2022/06/09 01:50:19;;;;;;;4.97;2.10;;;;;;;12.77;100.00;95728.84;5017144;28;20114;-77
2022/06/09 01:52:46;;;;;;;5.03;2.50;;;;;;;12.71;100.00;95730.41;5007461;28;20506;-77
2022/06/09 01:55:17;;;;;;;4.50;3.03;;;;;;;12.71;100.00;95734.88;5014770;28;20087;-77
2022/06/09 01:57:43;;;;;;;5.93;2.80;;;;;;;12.80;100.00;95722.38;5028018;28;20037;-78
2022/06/09 02:00:15;;;;;;;5.07;3.27;;;;;;;12.71;100.00;95721.69;5018419;28;20034;-77
2022/06/09 02:02:49;;;;;;;5.10;3.30;;;;;;;12.73;100.00;95724.94;5026017;28;20037;-77
2022/06/09 02:05:28;;;;;;;4.83;2.60;;;;;;;12.68;100.00;95727.34;5015296;28;20052;-77
2022/06/09 02:07:57;;;;;;;4.27;2.53;;;;;;;12.73;100.00;95724.94;5031183;28;20471;-77
2022/06/09 02:10:33;;;;;;;3.77;2.37;;;;;;;12.71;100.00;95727.78;5021085;28;20088;-77
2022/06/09 02:13:03;;;;;;;4.20;2.50;;;;;;;12.75;100.00;95728.22;5018223;28;20057;-77
2022/06/09 02:15:36;;;;;;;4.73;2.67;;;;;;;12.63;100.00;95730.50;5021348;28;20033;-77
2022/06/09 02:18:08;;;;;;;5.20;2.60;;;;;;;12.67;100.00;95728.31;5016896;28;20064;-77
2022/06/09 02:20:35;;;;;;;4.60;2.60;;;;;;;12.65;100.00;95730.34;5031911;28;20034;-77
2022/06/09 02:23:01;;;;;;;4.17;2.30;;;;;;;12.68;100.00;95736.06;5036779;28;20032;-77
2022/06/09 02:25:26;;;;;;;6.07;2.77;;;;;;;12.72;100.00;95742.59;4999230;28;20057;-77
2022/06/09 02:27:53;;;;;;;4.27;1.97;;;;;;;12.61;100.00;95736.97;5026567;28;20041;-77
2022/06/09 02:30:20;;;;;;;2.97;1.77;;;;;;;12.67;100.00;95737.03;5005891;28;20030;-77
2022/06/09 02:32:45;;;;;;;3.83;2.07;;;;;;;12.63;100.00;95741.06;5027065;28;20801;-77
2022/06/09 02:35:11;;;;;;;4.20;2.30;;;;;;;12.63;100.00;95741.06;5021194;28;20025;-77
2022/06/09 02:37:37;;;;;;;4.27;2.10;;;;;;;12.68;100.00;95743.16;5037297;28;20040;-77
2022/06/09 02:40:03;;;;;;;5.73;2.17;;;;;;;12.63;100.00;95748.97;5012734;28;20167;-77
2022/06/09 02:42:29;;;;;;;4.03;2.23;;;;;;;12.71;100.00;95756.00;5032458;28;20021;-77
2022/06/09 02:44:55;;;;;;;3.27;1.97;;;;;;;12.70;100.00;95749.88;5024629;28;20046;-77
2022/06/09 02:47:21;;;;;;;4.93;2.50;;;;;;;12.62;100.00;95749.16;5023647;28;20041;-77
2022/06/09 02:49:46;;;;;;;4.97;2.70;;;;;;;12.58;100.00;95750.53;5025098;28;20044;-77
2022/06/09 02:52:12;;;;;;;3.97;2.67;;;;;;;12.72;100.00;95749.69;5021334;28;20041;-77
2022/06/09 02:54:38;;;;;;;5.93;2.67;;;;;;;12.68;100.00;95751.06;5021644;28;20649;-77
2022/06/09 02:57:04;;;;;;;4.27;2.80;;;;;;;12.70;100.00;95744.59;5027976;28;20033;-77
2022/06/09 02:59:30;;;;;;;3.93;2.70;;;;;;;12.75;100.00;95751.97;5026228;28;20037;-77
2022/06/09 03:01:55;;;;;;;3.90;2.77;;;;;;;12.85;100.00;95749.84;5017770;28;20471;-77
2022/06/09 03:04:21;;;;;;;4.60;2.77;;;;;;;12.89;100.00;95748.47;5030770;28;20033;-77
2022/06/09 03:06:47;;;;;;;6.37;2.83;;;;;;;12.90;100.00;95751.94;5020996;28;20037;-77
2022/06/09 03:09:12;;;;;;;5.23;2.43;;;;;;;12.93;100.00;95752.38;5018150;28;20026;-78
2022/06/09 03:11:38;;;;;;;4.83;2.40;;;;;;;12.92;100.00;95747.31;5006841;28;20034;-77
2022/06/09 03:14:04;;;;;;;4.57;2.50;;;;;;;12.88;100.00;95748.69;5031861;28;20088;-76
2022/06/09 03:16:30;;;;;;;4.93;2.30;;;;;;;12.93;100.00;95748.94;5023070;28;20045;-77
2022/06/09 03:18:56;;;;;;;3.37;2.40;;;;;;;12.95;100.00;95742.47;5016535;28;20026;-77
2022/06/09 03:21:22;;;;;;;3.77;2.40;;;;;;;12.98;100.00;95739.47;5016748;28;20034;-77
2022/06/09 03:23:50;;;;;;;4.50;2.20;;;;;;;12.88;100.00;95744.22;5028269;28;20044;-77
2022/06/09 03:26:15;;;;;;;5.37;2.27;;;;;;;12.87;100.00;95741.75;5017657;28;20105;-77
2022/06/09 03:28:41;;;;;;;4.00;2.20;;;;;;;12.97;100.00;95748.34;5028513;28;20071;-77
2022/06/09 03:31:07;;;;;;;5.23;1.97;;;;;;;12.81;100.00;95756.50;5019489;28;20518;-76
2022/06/09 03:33:32;;;;;;;4.10;1.73;;;;;;;12.71;100.00;95758.63;5036060;28;20033;-76
2022/06/09 03:35:58;;;;;;;2.47;1.37;;;;;;;12.60;100.00;95767.00;5013903;28;20030;-77
2022/06/09 03:38:24;;;;;;;1.50;1.00;;;;;;;12.52;100.00;95760.00;5039553;28;20044;-77
2022/06/09 03:40:49;;;;;;;1.73;1.07;;;;;;;12.40;100.00;95754.34;5019636;28;20034;-79
2022/06/09 03:43:15;;;;;;;2.30;1.27;;;;;;;12.40;100.00;95762.25;5031669;28;20045;-77
2022/06/09 03:45:41;;;;;;;5.07;1.70;;;;;;;12.44;100.00;95768.81;5021699;28;20025;-77
2022/06/09 03:48:06;;;;;;;2.00;1.53;;;;;;;12.44;100.00;95774.09;5014760;28;20030;-77
2022/06/09 03:50:32;;;;;;;1.17;1.00;;;;;;;12.32;100.00;95780.00;5037488;28;20034;-79
2022/06/09 03:52:58;;;;;;;4.87;1.40;;;;;;;12.27;100.00;95772.63;5023872;28;20040;-80
2022/06/09 03:55:25;;;;;;;3.00;1.57;;;;;;;12.34;100.00;95783.25;5032652;28;20107;-78
2022/06/09 03:57:51;;;;;;;3.23;1.40;;;;;;;12.10;100.00;95793.06;5018409;28;20306;-78
2022/06/09 04:00:21;;;;;;;3.83;1.60;;;;;;;12.14;100.00;95796.16;5024865;28;20093;-79
2022/06/09 04:02:47;;;;;;;2.17;1.07;;;;;;;12.13;100.00;95792.69;5042590;28;20113;-78
2022/06/09 04:05:13;;;;;;;3.27;1.30;;;;;;;12.02;100.00;95795.78;5013624;28;20038;-79
2022/06/09 04:07:40;;;;;;;3.83;1.20;;;;;;;12.08;100.00;95804.78;5004081;28;20079;-78
2022/06/09 04:10:06;;;;;;;3.03;1.53;;;;;;;12.13;100.00;95792.69;5026121;28;20034;-79
2022/06/09 04:12:34;;;;;;;2.33;1.50;;;;;;;12.16;100.00;95789.69;5033904;28;20030;-79
2022/06/09 04:15:01;;;;;;;2.67;1.70;;;;;;;12.15;100.00;95795.16;5022841;28;20057;-79
2022/06/09 04:17:27;;;;;;;2.93;1.20;;;;;;;12.21;100.00;95802.38;5035760;28;20552;-78
2022/06/09 04:19:53;;;;;;;2.77;1.40;;;;;;;12.30;100.00;95790.72;5024492;28;20048;-79
2022/06/09 04:22:19;;;;;;;2.30;1.33;;;;;;;12.23;100.00;95792.44;5037766;28;20058;-79
2022/06/09 04:24:44;;;;;;;2.30;1.20;;;;;;;12.16;100.00;95802.88;5004881;28;20108;-79
2022/06/09 04:27:10;;;;;;;2.50;1.10;;;;;;;12.16;100.00;95808.16;5015517;28;20097;-78
2022/06/09 04:29:36;;;;;;;3.40;1.10;;;;;;;12.13;100.00;95808.50;5025357;28;20032;-78
2022/06/09 04:32:01;;;;;;;2.80;1.17;;;;;;;12.24;100.00;95812.56;5003470;28;20034;-79
2022/06/09 04:34:27;;;;;;;3.43;1.37;;;;;;;12.25;100.00;95811.53;5032277;28;20120;-79
2022/06/09 04:36:53;;;;;;;4.13;1.37;;;;;;;12.30;100.00;95798.63;5012854;28;20665;-79
2022/06/09 04:39:18;;;;;;;3.03;1.20;;;;;;;12.33;100.00;95808.00;5032160;28;20026;-79
2022/06/09 04:41:44;;;;;;;3.70;1.23;;;;;;;12.25;100.00;95822.91;5024989;28;20030;-79
2022/06/09 04:44:11;;;;;;;3.17;1.20;;;;;;;12.16;100.00;95818.69;5019355;28;20033;-79
2022/06/09 04:46:37;;;;;;;1.43;0.80;;;;;;;12.17;100.00;95812.44;5024986;28;20034;-81
2022/06/09 04:49:02;;;;;;;2.57;1.30;;;;;;;12.25;100.00;95822.09;5009560;28;20387;-80
2022/06/09 04:51:29;;;;;;;3.17;0.97;;;;;;;12.33;100.00;95824.63;5018536;28;20053;-81
2022/06/09 04:53:55;;;;;;;2.93;1.10;;;;;;;12.42;100.00;95820.91;5016447;28;20032;-82
2022/06/09 04:56:22;;;;;;;3.17;1.53;;;;;;;12.41;100.00;95831.66;5005867;28;20033;-81
2022/06/09 04:58:51;;;;;;;2.17;1.33;;;;;;;12.48;100.00;95829.94;5027040;28;20033;-82
2022/06/09 05:01:21;;;;;;;3.10;1.40;;;;;;;12.52;100.00;95822.47;5022580;28;20038;-82
2022/06/09 05:03:48;;;;;;;2.97;1.50;;;;;;;12.61;100.00;95831.91;5012444;28;20029;-80
2022/06/09 05:06:16;;;;;;;3.33;1.57;;;;;;;12.61;100.00;95822.22;5014532;28;20069;-81
2022/06/09 05:08:42;;;;;;;5.63;2.13;;;;;;;12.76;100.00;95834.56;5016489;28;20094;-79
2022/06/09 05:11:07;;;;;;;2.57;1.60;;;;;;;12.92;100.00;95839.66;5018952;28;20046;-80
2022/06/09 05:13:34;;;;;;;2.97;1.70;;;;;;;12.97;100.00;95847.84;5006657;28;20022;-80
2022/06/09 05:15:59;;;;;;;4.03;2.30;;;;;;;12.98;100.00;95842.41;5017563;28;20045;-79
2022/06/09 05:18:27;;;;;;;8.50;2.30;;;;;;;13.11;100.00;95849.66;5015464;28;20034;-80
2022/06/09 05:20:56;;;;;;;3.27;1.93;;;;;;;13.25;100.00;95849.88;5014015;28;20097;-78
2022/06/09 05:23:22;;;;;;;5.00;2.60;;;;;;;13.29;100.00;95853.75;5027809;28;20042;-80
2022/06/09 05:25:49;;;;;;;4.00;2.30;;;;;;;13.28;100.00;95842.38;5042372;28;20037;-80
2022/06/09 05:28:16;;;;;;;5.10;1.93;;;;;;;13.37;100.00;95849.16;5008157;28;20065;-80
2022/06/09 05:30:42;;;;;;;4.00;2.13;;;;;;;13.35;100.00;95858.31;5022479;28;20034;-80
2022/06/09 05:33:07;;;;;;;4.50;2.40;;;;;;;13.72;100.00;95862.56;5026907;28;20026;-80
2022/06/09 05:35:33;;;;;;;8.30;2.50;;;;;;;13.61;100.00;95852.47;5026664;28;20034;-80
2022/06/09 05:46:15;;;;;;;5.80;2.83;;;;;;;13.91;100.00;95867.22;5022385;28;20125;-80
2022/06/09 05:48:42;;;;;;;4.63;2.53;;;;;;;13.98;100.00;95869.09;5028546;28;20589;-82
2022/06/09 05:51:08;;;;;;;5.93;2.90;;;;;;;14.11;100.00;95877.97;5022589;28;20044;-80
2022/06/09 05:53:35;;;;;;;5.07;3.20;;;;;;;14.05;100.00;95886.69;5021799;28;20053;-81
2022/06/09 05:56:01;;;;;;;19.17;14.00;;;;;;;14.13;100.00;95878.63;5024753;28;20026;-80
2022/06/09 05:58:27;;;;;;;13.97;9.27;;;;;;;14.11;100.00;95882.44;5005237;28;20550;-81
2022/06/09 06:00:52;;;;;;;8.60;5.33;;;;;;;13.99;100.00;95889.28;5003726;28;20045;-80
2022/06/09 06:03:18;;;;;;;8.57;3.47;;;;;;;14.07;100.00;95889.13;5013795;28;20630;-82
2022/06/09 06:08:28;;;;;;;5.73;2.97;;;;;;;13.83;100.00;95887.69;5018641;28;20061;-81
2022/06/09 06:10:54;;;;;;;8.27;3.23;;;;;;;13.90;100.00;95892.03;5043448;28;20032;-81
2022/06/09 06:13:20;;;;;;;8.23;3.70;;;;;;;13.96;100.00;95889.66;5035815;28;20038;-81
2022/06/09 06:15:45;;;;;;;6.90;3.10;;;;;;;13.86;100.00;95903.16;5015770;28;20026;-81
2022/06/09 06:18:11;;;;;;;4.47;2.80;;;;;;;13.91;100.00;95898.94;5033186;28;20027;-80
2022/06/09 06:20:37;;;;;;;5.33;3.27;;;;;;;13.80;100.00;95902.09;5023088;28;20038;-80
2022/06/09 06:23:03;;;;;;;8.40;4.10;;;;;;;14.02;100.00;95902.94;5019921;28;20026;-80
2022/06/09 06:25:28;;;;;;;7.37;3.90;;;;;;;14.16;100.00;95901.22;5019081;28;20667;-81
2022/06/09 06:27:55;;;;;;;9.40;3.13;;;;;;;14.34;100.00;95901.56;5013909;28;20055;-81
2022/06/09 06:30:21;;;;;;;7.83;3.70;;;;;;;14.30;100.00;95913.56;5012306;28;20129;-80
2022/06/09 06:32:47;;;;;;;10.57;4.00;;;;;;;14.21;100.00;95912.03;5017705;28;20121;-81
2022/06/09 06:35:14;;;;;;;8.70;4.23;;;;;;;14.64;100.00;95906.72;5006220;28;20077;-79
2022/06/09 06:37:40;;;;;;;7.40;3.63;;;;;;;15.01;100.00;95894.94;5027684;28;20033;-81
2022/06/09 06:40:09;;;;;;;9.87;3.70;;;;;;;16.18;100.00;95896.63;5008031;28;20034;-81
2022/06/09 06:42:34;;;;;;;8.10;3.20;;;;;;;16.02;100.00;95902.28;5036091;28;20034;-81
2022/06/09 06:45:00;;;;;;;8.15;3.28;;;;;;;15.76;100.00;95903.88;5017850;28;20036;-81
2022/06/09 06:47:26;;;;;;;7.25;2.63;;;;;;;15.45;100.00;95895.56;5022688;28;20484;-78
2022/06/09 06:49:51;;;;;;;8.48;4.22;;;;;;;15.78;100.00;95896.53;5020918;28;20026;-81
2022/06/09 06:52:17;;;;;;;15.32;10.93;;;;;;;15.45;100.00;95906.97;5017887;28;20511;-79
2022/06/09 06:54:42;;;;;;;6.72;3.03;;;;;;;15.59;100.00;95910.50;5019422;28;20041;-81
2022/06/09 06:57:09;;;;;;;4.90;2.17;;;;;;;15.41;100.00;95913.69;5022578;28;20109;-81
2022/06/09 06:59:35;;;;;;;7.13;2.13;;;;;;;14.76;100.00;95913.13;5016444;28;20060;-81
2022/06/09 07:02:01;;;;;;;8.88;2.15;;;;;;;15.09;100.00;95918.66;5021345;28;20032;-80
2022/06/09 07:04:27;;;;;;;5.38;2.42;;;;;;;15.09;100.00;95920.47;5037237;28;20068;-80
2022/06/09 07:06:53;;;;;;;3.88;1.92;;;;;;;14.93;100.00;95918.13;5032790;28;20132;-81
2022/06/09 07:09:19;;;;;;;6.25;2.45;;;;;;;14.87;100.00;95930.31;5027715;28;20057;-80
2022/06/09 07:11:45;;;;;;;3.15;2.03;;;;;;;15.10;100.00;95932.69;5023992;28;20030;-81
2022/06/09 07:14:12;;;;;;;5.32;2.00;;;;;;;15.26;100.00;95935.03;5008185;28;20037;-81
2022/06/09 07:16:38;;;;;;;4.77;2.20;;;;;;;15.59;100.00;95934.34;5019450;28;20057;-81
2022/06/09 07:19:05;;;;;;;7.43;2.10;;;;;;;15.46;100.00;95939.59;5026086;28;20031;-81
2022/06/09 07:21:31;;;;;;;7.05;2.10;;;;;;;15.31;100.00;95931.78;5017069;28;20046;-80
2022/06/09 07:23:57;;;;;;;5.25;2.05;;;;;;;15.57;100.00;95931.91;5024683;28;20113;-80
2022/06/09 07:26:23;;;;;;;5.45;1.75;;;;;;;16.41;100.00;95933.38;5031051;28;20068;-80
2022/06/09 07:28:49;;;;;;;6.38;2.38;;;;;;;17.32;100.00;95923.94;5009303;28;20097;-81
2022/06/09 07:31:15;;;;;;;4.70;1.80;;;;;;;17.89;100.00;95925.78;5016809;28;20034;-81
2022/06/09 07:33:41;;;;;;;6.68;1.77;;;;;;;17.83;100.00;95926.63;5017142;28;20029;-81
2022/06/09 07:36:11;;;;;;;5.07;1.80;;;;;;;18.32;100.00;95930.44;5017077;28;20042;-81
2022/06/09 07:38:37;;;;;;;4.68;1.50;;;;;;;17.86;100.00;95931.50;5006269;28;20033;-81
2022/06/09 07:41:03;;;;;;;5.53;1.88;;;;;;;17.95;100.00;95933.94;5002044;28;20026;-81
2022/06/09 07:43:29;;;;;;;3.33;1.20;;;;;;;18.29;100.00;95927.38;5011549;28;20114;-81
2022/06/09 07:45:54;;;;;;;5.43;1.65;;;;;;;18.28;100.00;95934.56;5026840;28;20041;-81
2022/06/09 07:48:21;;;;;;;6.50;1.88;;;;;;;18.03;100.00;95939.00;5019695;28;20115;-81
2022/06/09 07:50:49;;;;;;;3.30;1.58;;;;;;;17.29;100.00;95950.91;5025395;28;20535;-81
2022/06/09 07:53:16;;;;;;;5.32;1.38;;;;;;;17.48;100.00;95941.28;5040390;28;20025;-81
2022/06/09 07:55:43;;;;;;;3.15;1.30;;;;;;;17.58;100.00;95949.63;5017362;28;20042;-81
2022/06/09 07:58:08;;;;;;;4.07;1.23;;;;;;;17.41;100.00;95943.94;5013190;28;20381;-81
2022/06/09 08:00:34;;;;;;;3.35;1.60;;;;;;;18.09;100.00;95940.81;5018129;28;20101;-81
2022/06/09 08:03:03;;;;;;;11.13;1.80;;;;;;;18.15;100.00;95939.97;5018652;28;20022;-82
2022/06/09 08:05:31;;;;;;;5.85;1.80;;;;;;;18.50;100.00;95942.19;5031355;28;20030;-82
2022/06/09 08:07:57;;;;;;;4.45;1.23;;;;;;;18.51;100.00;95947.31;5014553;28;20121;-81
2022/06/09 08:10:25;;;;;;;6.00;1.20;;;;;;;17.37;100.00;95948.03;5027074;28;20061;-81
2022/06/09 08:12:55;;;;;;;21.45;13.13;;;;;;;17.17;100.00;95954.22;5011481;28;20053;-81
2022/06/09 08:15:24;;;;;;;6.78;3.40;;;;;;;16.66;100.00;95957.47;5016718;28;20042;-81
2022/06/09 08:17:51;;;;;;;5.93;2.03;;;;;;;16.67;100.00;95959.13;5023248;28;20100;-81
2022/06/09 08:20:17;;;;;;;3.72;1.40;;;;;;;16.56;100.00;95957.06;5029203;28;20038;-83
2022/06/09 08:22:43;;;;;;;4.25;1.85;;;;;;;17.01;100.00;95959.97;5023821;28;20033;-81
2022/06/09 08:25:14;;;;;;;3.72;1.30;;;;;;;18.35;100.00;95964.63;5013897;28;20121;-81
2022/06/09 08:27:41;;;;;;;4.07;1.30;;;;;;;18.96;100.00;95960.50;5024861;28;20044;-79
2022/06/09 08:30:09;;;;;;;4.50;1.42;;;;;;;18.69;100.00;95959.06;5006617;28;20037;-81
2022/06/09 08:32:35;;;;;;;4.68;1.40;;;;;;;18.75;100.00;95956.38;5030745;28;20025;-82
2022/06/09 08:35:02;;;;;;;2.03;1.00;;;;;;;19.44;97.51;95954.50;5003971;28;20751;-81
2022/06/09 08:37:27;;;;;;;4.60;1.10;;;;;;;19.65;94.52;95960.44;5023484;28;20566;-82
2022/06/09 08:39:53;;;;;;;5.13;1.67;;;;;;;18.94;99.03;95965.22;5019890;28;20065;-81
2022/06/09 08:42:39;;;;;;;4.93;1.10;;;;;;;18.78;95.06;95963.13;5028766;28;20041;-81
2022/06/09 08:45:10;;;;;;;3.05;0.95;;;;;;;18.02;100.00;95971.97;5037906;28;20044;-81
2022/06/09 08:47:49;;;;;;;6.85;1.10;;;;;;;19.08;92.32;95973.94;4997750;28;20113;-81
2022/06/09 08:50:24;;;;;;;5.32;1.70;;;;;;;18.99;88.97;95972.59;5020049;28;20099;-81
2022/06/09 08:53:00;;;;;;;5.13;1.35;;;;;;;17.99;97.30;95970.53;5030074;28;20022;-80
2022/06/09 08:55:32;;;;;;;3.40;0.77;;;;;;;19.10;91.17;95969.19;5028741;28;20030;-80
2022/06/09 08:58:04;;;;;;;6.40;1.10;;;;;;;19.31;95.75;95968.81;5026868;28;20136;-81
2022/06/09 09:00:37;;;;;;;3.08;0.80;;;;;;;19.28;97.21;95981.72;5030779;28;20038;-81
2022/06/09 09:03:15;;;;;;;4.35;1.20;;;;;;;19.11;87.90;95988.66;5014893;28;20120;-81
2022/06/09 09:05:56;;;;;;;5.30;1.85;;;;;;;20.01;74.05;95976.44;5010284;28;20087;-82
2022/06/09 09:08:22;;;;;;;6.78;2.45;;;;;;;21.22;75.11;95983.50;5021700;28;20044;-81
2022/06/09 09:11:08;;;;;;;2.95;0.90;;;;;;;22.48;63.85;95975.75;5019376;28;20021;-82
2022/06/09 09:14:00;;;;;;;4.38;1.33;;;;;;;23.11;61.83;95979.25;5027743;28;20029;-81
2022/06/09 09:16:32;;;;;;;5.43;1.42;;;;;;;21.53;64.46;95977.00;5027628;28;20034;-80
2022/06/09 09:19:13;;;;;;;2.83;0.70;;;;;;;19.59;75.36;95988.00;5029039;28;20040;-80
2022/06/09 09:21:38;;;;;;;5.90;1.33;;;;;;;20.06;75.21;95977.63;5023909;28;20030;-80
2022/06/09 09:24:22;;;;;;;3.13;0.90;;;;;;;19.09;79.79;95980.91;5041192;28;20049;-82
2022/06/09 09:27:14;;;;;;;3.75;0.90;;;;;;;19.36;78.04;95988.66;5028831;28;20104;-82
2022/06/09 09:30:12;;;;;;;5.63;1.33;;;;;;;19.48;76.75;95985.03;5009662;28;20042;-81
2022/06/09 09:32:43;;;;;;;4.68;1.02;;;;;;;19.80;75.57;95984.91;5029881;28;20033;-81
2022/06/09 09:35:19;;;;;;;5.88;1.15;;;;;;;19.89;74.42;95983.59;5035817;28;20053;-81
2022/06/09 09:37:49;;;;;;;6.15;1.67;;;;;;;19.68;79.83;95997.34;5033960;28;20113;-80
2022/06/09 09:40:20;;;;;;;6.47;2.30;;;;;;;18.57;86.04;95996.22;5020606;28;20119;-80
2022/06/09 09:42:47;;;;;;;5.20;1.20;;;;;;;18.71;85.72;96008.44;4999663;28;20037;-82
2022/06/09 09:45:17;;;;;;;4.35;0.93;;;;;;;18.28;88.79;96005.63;5014662;28;20115;-81
2022/06/09 09:47:48;;;;;;;3.88;0.98;;;;;;;19.90;74.52;96006.56;5006378;28;20404;-80
2022/06/09 09:50:53;;;;;;;3.78;0.70;;;;;;;20.84;67.70;96004.28;5008306;28;20041;-80
2022/06/09 09:53:19;;;;;;;7.93;1.33;;;;;;;21.59;63.03;95992.94;5015012;28;20124;-82
2022/06/09 09:55:54;;;;;;;3.90;0.93;;;;;;;20.67;67.21;96008.66;5018693;28;20041;-81
2022/06/09 09:58:26;;;;;;;4.50;1.00;;;;;;;21.31;62.12;96001.66;5004724;28;20088;-80
2022/06/09 10:00:59;;;;;;;6.05;1.60;;;;;;;20.82;67.73;96006.34;5015228;28;20125;-80
2022/06/09 10:09:16;;;;;;;4.95;1.20;;;;;;;19.27;78.36;96004.91;5013773;28;20084;-81
2022/06/09 10:11:56;;;;;;;3.55;0.85;;;;;;;18.79;75.54;96016.19;5039462;28;20060;-80
2022/06/09 10:14:38;;;;;;;6.50;1.17;;;;;;;18.40;78.71;96027.88;5025976;28;20026;-81
2022/06/09 10:17:18;;;;;;;5.43;1.10;;;;;;;18.12;81.70;96018.38;5023156;28;20045;-81
2022/06/09 10:19:57;;;;;;;5.82;1.20;;;;;;;18.40;85.21;96027.06;5032186;28;20096;-82
2022/06/09 10:22:22;;;;;;;2.83;0.90;;;;;;;18.43;81.51;96031.94;5021703;28;20076;-81
2022/06/09 10:24:59;;;;;;;4.50;0.90;;;;;;;18.92;79.32;96036.59;5019941;28;20097;-81
2022/06/09 10:27:33;;;;;;;5.15;1.10;;;;;;;20.70;67.13;96032.25;5017583;28;20026;-81
2022/06/09 10:30:09;;;;;;;3.47;0.90;;;;;;;20.11;68.03;96034.63;5016165;28;20029;-81
2022/06/09 10:33:00;;;;;;;4.40;0.80;;;;;;;19.13;74.66;96045.25;5030803;28;20068;-82
2022/06/09 10:35:55;;;;;;;4.45;1.10;;;;;;;19.73;72.46;96049.03;5015673;28;20026;-81
2022/06/09 10:38:29;;;;;;;2.15;0.98;;;;;;;20.41;72.81;96042.69;5008368;28;20100;-81
2022/06/09 10:40:59;;;;;;;5.00;1.20;;;;;;;21.81;65.11;96038.66;5033888;28;20033;-81
2022/06/09 10:43:40;;;;;;;5.03;1.02;;;;;;;22.05;63.04;96038.63;5027598;28;20113;-81
2022/06/09 10:46:35;;;;;;;4.28;0.93;;;;;;;21.45;62.17;96041.59;5009971;28;20030;-82
2022/06/09 10:55:24;;;;;;;3.05;0.85;;;;;;;19.84;69.38;96041.31;5017245;28;19917;-79
2022/06/09 10:58:08;;;;;;;3.70;0.88;;;;;;;19.29;74.08;96047.38;4977634;28;20042;-81
2022/06/09 11:00:39;;;;;;;4.93;0.90;;;;;;;19.57;70.50;96035.41;5011746;28;20034;-81
2022/06/09 11:03:18;;;;;;;5.43;1.23;;;;;;;19.46;74.20;96042.28;5035138;28;20184;-82
2022/06/09 11:05:59;;;;;;;4.43;1.52;;;;;;;19.11;73.49;96033.97;5009166;28;20132;-81
2022/06/09 11:08:27;;;;;;;3.63;1.00;;;;;;;18.75;76.94;96046.97;5033378;28;20144;-80
2022/06/09 11:11:04;;;;;;;3.97;0.90;;;;;;;18.65;75.52;96059.91;5030524;28;20033;-81
2022/06/09 11:13:51;;;;;;;4.82;1.23;;;;;;;18.70;77.15;96053.91;5021157;28;20056;-81
2022/06/09 11:16:20;;;;;;;3.38;0.90;;;;;;;18.43;77.28;96050.59;5048889;28;20038;-80
2022/06/09 11:19:04;;;;;;;4.75;1.40;;;;;;;18.55;81.13;96049.72;5036830;28;20072;-80
2022/06/09 11:21:50;;;;;;;4.38;1.38;;;;;;;18.25;88.02;96053.97;5018356;28;20042;-82
2022/06/09 11:24:48;;;;;;;5.85;1.42;;;;;;;18.41;79.24;96055.31;5033724;28;20467;-81
2022/06/09 11:27:44;;;;;;;6.18;1.30;;;;;;;19.89;74.43;96039.63;5028427;28;20490;-81
2022/06/09 11:30:41;;;;;;;4.55;1.13;;;;;;;21.45;62.13;96030.88;5009234;28;20619;-81
2022/06/09 11:33:43;;;;;;;4.25;0.85;;;;;;;21.76;59.42;96035.88;5026895;28;20060;-81
2022/06/09 11:36:24;;;;;;;5.80;1.08;;;;;;;22.14;59.63;96037.22;5032654;28;20038;-80
2022/06/09 11:38:50;;;;;;;4.22;1.23;;;;;;;21.69;58.50;96043.22;5025786;28;20044;-80
2022/06/09 11:41:19;;;;;;;2.58;0.88;;;;;;;22.98;53.09;96034.00;5015555;28;20468;-82
2022/06/09 11:44:01;;;;;;;3.05;0.80;;;;;;;21.88;53.88;96042.03;5020187;28;20033;-81
2022/06/09 11:46:34;;;;;;;4.45;1.05;;;;;;;20.76;54.75;96041.19;5012433;28;20035;-79
2022/06/09 11:49:06;;;;;;;4.55;1.42;;;;;;;19.95;57.18;96043.25;5029160;28;20132;-81
2022/06/09 11:51:34;;;;;;;3.92;0.98;;;;;;;20.32;60.07;96044.06;5023225;28;20033;-80
2022/06/09 11:54:04;;;;;;;5.03;1.27;;;;;;;20.17;60.99;96032.94;5014189;28;20026;-80
2022/06/09 11:56:40;;;;;;;4.43;1.40;;;;;;;20.34;64.68;96049.97;5031150;28;20495;-80
2022/06/09 11:59:11;;;;;;;4.72;1.10;;;;;;;20.85;55.50;96040.66;5016604;28;20045;-81
2022/06/09 12:01:40;;;;;;;6.30;1.10;;;;;;;20.73;57.74;96042.50;4999169;28;20106;-82
2022/06/09 12:04:27;;;;;;;4.50;0.90;;;;;;;20.37;57.80;96043.38;5021559;28;20022;-82